Hinton, OK

11:10 AM CDT on September 26, 2016 (GMT -0500)
West Central Overhead Door | | Change Station

Elev 1611 ft 35.38 °N, 98.23 °W | Updated 5 seconds ago

Clear
Clear
64.8 °F
Feels Like 64.8 °F
N
18.6
Wind Variable Wind from NNE
Gusts 22.4 mph

Today
High -- | Low -- °F
--% Chance of Precip.
Yesterday
High -- | Low -- °F
Precip. -- in
Pressure 30.34 in
Visibility 10.0 miles
Clouds Clear
Dew Point 22 °F
Humidity 19%
Rainfall 0.00 in
Snow Depth Not available.
7:24 AM 7:23 PM
Waning Crescent, 18% visible
METAR KOJA 261555Z AUTO 04011KT 10SM CLR 18/07 A3034 RMK AO2
Pressure 30.34 in
Visibility 10.0 miles
Clouds Clear
Dew Point 22 °F
Humidity 19%
Rainfall 0.00 in
Snow Depth Not available.
7:24 AM 7:23 PM
Waning Crescent, 18% visible
METAR KOJA 261555Z AUTO 04011KT 10SM CLR 18/07 A3034 RMK AO2

10-Day Weather Forecast

Almanac

Astronomy

Sep. 26, 2016 Rise Set
Actual Time
Civil Twilight
Nautical Twilight
Astronomical Twilight
Moon
Length of Visible Light
Length of Day
Tomorrow will be .
, % of the Moon is Illuminated

Today's Extremes

State Highs State Lows

Community

WunderPhotos

Upload Photos

1,941,908 photos uploaded!

WunderBlog® & News

Nearby

Air Quality

  Air Quality AQ Index Pollutant
Not available.

Snow Depth

Station Depth Elevation

Earthquake Activity

City Distance Mag. Time & Date
Minimum magnitude displayed is 2.5.

Coastal Water Temperatures

Place Temperature

Stations

Nearby Weather Stations

Station Location Temp. Windchill Dew Point Humidity Wind Precip. Elev Updated Type
                   

Watches & Warnings

There are currently no watches in effect.